Terminal Aerodrome Forecast
Issued by NWS

Home | Current Version | Previous Version | Graphics & Text | Print | Product List | Glossary On
Versions: 1 2 3 4 5 6 7 8 9 10 11 12 13 14 15 16 17 18 19 20 21 22 23 24 25 26 27 28 29 30 31 32 33 34 35 36 37 38 39 40 41 42 43 44 45 46 47 48
000
FTUS43 KLOT 080901 AAA
TAFGYY
TAF AMD
KGYY 080901Z 0809/0906 24010KT P6SM SCT030 SCT150
     FM081130 28010G15KT P6SM -SHSN OVC013
      TEMPO 0812/0816 2SM -SHSN OVC015
     FM081600 28010KT P6SM -SHSN OVC020
     FM090300 30012G22KT 2SM -SN BR OVC018=

USA.gov is the U.S. government's official web portal to all federal, state and local government web resources and services.